Time;durP1;ratioP1;P1;durP2;ratioP2;P2;SDS_P1;SDS_P2;PMS_P1;PMS_P2;Temp;Humidity;BMP_temperature;BMP_pressure;BME280_temperature;BME280_humidity;BME280_pressure;Samples;Min_cycle;Max_cycle;Signal;HPM_P1;HPM_P2
2024/02/29 00:02:55;;;;;;;50.88;16.60;;;;;;;4.60;100.00;101534.66;6278691;28;20049;-77
2024/02/29 00:05:56;;;;;;;50.80;15.73;;;;;;;4.66;100.00;101539.75;6300713;28;20575;-77
2024/02/29 00:08:58;;;;;;;44.55;15.02;;;;;;;4.64;100.00;101529.38;6300675;28;20052;-77
2024/02/29 00:12:01;;;;;;;50.90;15.40;;;;;;;4.65;100.00;101533.69;6300721;28;20044;-77
2024/02/29 00:15:02;;;;;;;43.40;15.52;;;;;;;4.66;100.00;101526.75;6300666;28;20439;-77
2024/02/29 00:18:03;;;;;;;48.33;16.02;;;;;;;4.65;100.00;101525.03;6300257;28;20040;-77
2024/02/29 00:21:05;;;;;;;40.28;14.75;;;;;;;4.65;100.00;101517.22;6300912;28;20047;-77
2024/02/29 00:24:06;;;;;;;45.50;14.93;;;;;;;4.66;100.00;101521.53;6299358;28;20044;-77
2024/02/29 00:27:09;;;;;;;44.65;14.85;;;;;;;4.64;100.00;101528.53;6300462;28;20396;-77
2024/02/29 00:30:11;;;;;;;45.67;14.57;;;;;;;4.65;100.00;101517.22;6299890;28;20399;-77
2024/02/29 00:33:12;;;;;;;42.38;15.65;;;;;;;4.62;100.00;101512.06;6283768;28;20041;-77
2024/02/29 00:36:13;;;;;;;40.85;15.48;;;;;;;4.58;100.00;101514.69;6286794;28;20323;-77
2024/02/29 00:39:15;;;;;;;46.90;14.80;;;;;;;4.46;100.00;101506.25;6271192;28;20044;-77
2024/02/29 00:42:17;;;;;;;46.42;15.25;;;;;;;4.40;100.00;101504.59;6284709;28;20433;-77
2024/02/29 00:45:19;;;;;;;42.53;14.07;;;;;;;4.40;100.00;101499.38;6288236;28;20052;-77
2024/02/29 00:48:20;;;;;;;36.10;13.57;;;;;;;4.37;100.00;101503.78;6297186;28;20055;-77
2024/02/29 00:51:21;;;;;;;40.47;14.90;;;;;;;4.27;100.00;101495.25;6299827;28;20048;-77
2024/02/29 00:54:24;;;;;;;34.58;13.02;;;;;;;4.25;100.00;101499.63;6300098;28;20048;-77
2024/02/29 00:57:27;;;;;;;36.53;12.38;;;;;;;4.24;100.00;101493.56;6298974;28;20494;-77
2024/02/29 01:00:28;;;;;;;32.53;12.77;;;;;;;4.17;100.00;101489.31;6284622;28;20045;-77
2024/02/29 01:03:30;;;;;;;39.42;14.02;;;;;;;4.21;100.00;101479.75;6275025;28;20041;-77
2024/02/29 01:06:31;;;;;;;34.25;12.88;;;;;;;4.24;100.00;101470.16;6275192;28;20052;-77
2024/02/29 01:09:32;;;;;;;37.88;13.77;;;;;;;4.24;100.00;101464.09;6274645;28;20437;-78
2024/02/29 01:12:39;;;;;;;43.63;14.43;;;;;;;4.25;100.00;101468.41;6282368;28;20048;-77
2024/02/29 01:15:41;;;;;;;41.53;13.63;;;;;;;4.27;100.00;101464.91;6299789;28;20051;-77
2024/02/29 01:18:42;;;;;;;33.55;12.95;;;;;;;4.30;100.00;101467.44;6299274;28;20044;-77
2024/02/29 01:21:43;;;;;;;38.00;13.05;;;;;;;4.33;100.00;101464.81;6299817;28;20040;-77
2024/02/29 01:24:45;;;;;;;43.95;13.45;;;;;;;4.33;100.00;101462.19;6299449;28;20041;-77
2024/02/29 01:27:47;;;;;;;45.15;13.77;;;;;;;4.25;100.00;101469.25;6299730;28;20052;-77
2024/02/29 01:30:49;;;;;;;34.03;13.23;;;;;;;4.26;100.00;101467.50;6299126;28;20049;-77
2024/02/29 01:33:51;;;;;;;35.22;13.27;;;;;;;4.22;100.00;101456.28;6299551;28;20040;-77
2024/02/29 01:36:52;;;;;;;37.58;12.20;;;;;;;4.22;100.00;101451.09;6303597;28;20578;-77
2024/02/29 01:39:53;;;;;;;34.45;11.20;;;;;;;4.18;100.00;101446.84;6302560;28;20048;-77
2024/02/29 01:42:56;;;;;;;35.92;13.02;;;;;;;4.12;100.00;101435.66;6289851;28;20322;-77
2024/02/29 01:46:10;;;;;;;26.73;10.75;;;;;;;4.09;100.00;101444.38;6304191;28;20056;-78
2024/02/29 01:49:13;;;;;;;34.22;11.27;;;;;;;3.96;100.00;101441.09;6303996;28;20049;-77
2024/02/29 01:52:15;;;;;;;33.10;11.50;;;;;;;3.91;100.00;101435.13;6312668;22;20042;-75
2024/02/29 01:55:17;;;;;;;32.38;10.23;;;;;;;3.86;100.00;101436.03;6238220;28;20397;-74
2024/02/29 01:58:20;;;;;;;37.35;12.27;;;;;;;3.87;100.00;101430.00;6254008;28;20046;-74
2024/02/29 02:01:21;;;;;;;32.80;10.93;;;;;;;3.81;100.00;101420.50;6254756;28;20449;-75
2024/02/29 02:04:22;;;;;;;29.08;10.32;;;;;;;3.79;100.00;101423.16;6231738;28;20053;-74
2024/02/29 02:07:24;;;;;;;30.00;10.05;;;;;;;3.73;100.00;101420.66;6229923;28;20046;-74
2024/02/29 02:10:25;;;;;;;40.60;12.52;;;;;;;3.65;100.00;101414.69;6229235;28;20045;-75
2024/02/29 02:13:28;;;;;;;32.88;11.00;;;;;;;3.60;100.00;101413.91;6229520;28;20388;-75
2024/02/29 02:16:29;;;;;;;29.23;11.00;;;;;;;3.55;100.00;101410.50;6229473;28;20045;-74
2024/02/29 02:19:31;;;;;;;34.70;10.57;;;;;;;3.59;100.00;101408.69;6228956;28;20426;-75
2024/02/29 02:22:33;;;;;;;29.00;11.40;;;;;;;3.54;100.00;101396.66;6229424;28;20055;-75
2024/02/29 02:25:35;;;;;;;28.15;10.75;;;;;;;3.51;100.00;101395.84;6229033;28;20438;-75
2024/02/29 02:28:36;;;;;;;27.50;10.77;;;;;;;3.50;100.00;101396.72;6228998;28;20057;-74
2024/02/29 02:31:37;;;;;;;26.73;9.65;;;;;;;3.46;100.00;101387.25;6229234;28;20465;-75
2024/02/29 02:34:39;;;;;;;27.52;10.40;;;;;;;3.40;100.00;101375.19;6229017;28;20038;-74
2024/02/29 02:37:42;;;;;;;32.40;10.68;;;;;;;3.34;100.00;101369.22;6228932;28;20042;-75
2024/02/29 02:40:43;;;;;;;24.75;9.07;;;;;;;3.36;100.00;101362.25;6220584;28;20061;-75
2024/02/29 02:43:48;;;;;;;31.15;11.82;;;;;;;3.36;100.00;101351.84;6228786;28;20053;-75
2024/02/29 02:46:49;;;;;;;28.55;10.30;;;;;;;3.30;100.00;101347.63;6228194;28;20056;-75
2024/02/29 02:49:51;;;;;;;25.80;10.20;;;;;;;3.34;100.00;101349.28;6230110;28;20069;-74
2024/02/29 02:52:53;;;;;;;20.15;8.88;;;;;;;3.32;100.00;101343.28;6234350;28;20049;-76
2024/02/29 02:55:55;;;;;;;25.45;8.95;;;;;;;3.34;100.00;101333.72;6228600;28;20046;-76
2024/02/29 02:58:56;;;;;;;23.42;10.43;;;;;;;3.35;100.00;101332.81;6237996;28;20081;-79
2024/02/29 03:01:57;;;;;;;31.27;11.00;;;;;;;3.38;100.00;101334.53;6241112;28;20049;-79
2024/02/29 03:04:59;;;;;;;27.45;10.63;;;;;;;3.37;100.00;101331.06;6242539;28;20045;-79
2024/02/29 03:08:03;;;;;;;21.25;8.30;;;;;;;3.38;100.00;101325.00;6236942;28;20060;-79
2024/02/29 03:11:04;;;;;;;24.10;10.40;;;;;;;3.40;100.00;101320.63;6248413;28;20049;-79
2024/02/29 03:14:06;;;;;;;31.88;9.60;;;;;;;3.38;100.00;101318.94;6241601;28;20049;-78
2024/02/29 03:17:07;;;;;;;28.08;9.32;;;;;;;3.33;100.00;101315.56;6228458;28;20053;-78
2024/02/29 03:20:12;;;;;;;29.23;9.02;;;;;;;3.33;100.00;101311.22;6227901;28;20037;-78
2024/02/29 03:23:14;;;;;;;20.70;8.90;;;;;;;3.33;100.00;101315.56;6228132;28;20066;-78
2024/02/29 03:26:16;;;;;;;19.25;8.52;;;;;;;3.30;100.00;101314.69;6236150;28;20446;-78
2024/02/29 03:29:17;;;;;;;27.98;10.65;;;;;;;3.41;100.00;101318.91;6243985;28;20172;-78
2024/02/29 03:32:20;;;;;;;26.10;10.15;;;;;;;3.41;100.00;101324.97;6235300;28;20330;-78
2024/02/29 03:35:21;;;;;;;23.80;10.18;;;;;;;3.42;100.00;101308.47;6228982;28;20045;-79
2024/02/29 03:38:24;;;;;;;27.48;10.35;;;;;;;3.39;100.00;101299.88;6246921;28;20215;-78
2024/02/29 03:41:26;;;;;;;24.63;9.10;;;;;;;3.48;100.00;101297.13;6233268;28;20046;-79
2024/02/29 03:44:27;;;;;;;30.77;9.65;;;;;;;3.49;100.00;101294.50;6235552;28;20091;-78
2024/02/29 03:47:29;;;;;;;26.33;10.02;;;;;;;3.41;100.00;101298.97;6233865;28;20048;-78
2024/02/29 03:50:30;;;;;;;26.42;9.25;;;;;;;3.39;100.00;101294.69;6227652;28;20050;-80
2024/02/29 03:53:33;;;;;;;27.73;9.57;;;;;;;3.38;100.00;101287.78;6227577;28;20053;-78
2024/02/29 03:56:34;;;;;;;24.65;10.05;;;;;;;3.26;100.00;101281.84;6227524;28;20060;-80
2024/02/29 03:59:35;;;;;;;23.73;9.00;;;;;;;3.30;100.00;101275.75;6226671;28;20052;-80
2024/02/29 04:02:37;;;;;;;23.27;8.90;;;;;;;3.31;100.00;101263.59;6227605;28;20439;-80
2024/02/29 04:05:39;;;;;;;24.92;9.27;;;;;;;3.26;100.00;101263.69;6227059;28;20045;-80
2024/02/29 04:08:41;;;;;;;31.60;11.55;;;;;;;3.23;100.00;101257.69;6226864;28;20359;-78
2024/02/29 04:11:43;;;;;;;30.85;10.00;;;;;;;3.21;100.00;101260.28;6227597;28;20117;-79
2024/02/29 04:14:44;;;;;;;25.58;10.07;;;;;;;3.20;100.00;101245.59;6226914;28;20058;-79
2024/02/29 04:17:45;;;;;;;26.33;10.80;;;;;;;3.19;100.00;101243.91;6227514;28;20046;-78
2024/02/29 04:20:47;;;;;;;24.90;9.98;;;;;;;3.16;100.00;101240.47;6226716;28;20042;-78
2024/02/29 04:23:50;;;;;;;22.63;10.07;;;;;;;3.14;100.00;101231.88;6227144;28;20125;-78
2024/02/29 04:26:51;;;;;;;26.77;8.77;;;;;;;3.16;100.00;101232.69;6227065;28;20435;-79
2024/02/29 04:29:52;;;;;;;22.65;9.95;;;;;;;3.15;100.00;101224.03;6226810;28;20057;-78
2024/02/29 04:32:55;;;;;;;31.48;10.55;;;;;;;3.15;100.00;101218.00;6226857;28;20065;-78
2024/02/29 04:35:56;;;;;;;26.13;10.18;;;;;;;3.13;100.00;101218.00;6226853;28;20446;-79
2024/02/29 04:38:58;;;;;;;28.73;10.05;;;;;;;3.10;100.00;101215.47;6226491;28;20050;-79
2024/02/29 04:42:00;;;;;;;29.73;9.65;;;;;;;3.09;100.00;101216.34;6226705;28;20050;-79
2024/02/29 04:45:01;;;;;;;25.88;9.25;;;;;;;3.11;100.00;101224.09;6226509;28;20430;-78
2024/02/29 04:48:04;;;;;;;24.35;9.82;;;;;;;3.13;100.00;101217.13;6226583;28;20439;-78
2024/02/29 04:51:05;;;;;;;27.13;9.70;;;;;;;3.12;100.00;101212.84;6226946;28;20057;-78
2024/02/29 04:54:08;;;;;;;28.85;9.95;;;;;;;3.09;100.00;101210.28;6226059;28;20052;-80
2024/02/29 04:57:09;;;;;;;21.67;8.57;;;;;;;3.12;100.00;101213.69;6225920;28;20049;-78
2024/02/29 05:00:13;;;;;;;27.58;10.27;;;;;;;3.08;100.00;101208.56;6226049;28;20427;-79
2024/02/29 05:03:14;;;;;;;32.00;10.77;;;;;;;3.09;100.00;101213.75;6226281;28;20049;-78
2024/02/29 05:06:16;;;;;;;30.95;10.32;;;;;;;3.11;100.00;101211.13;6225662;28;20042;-78
2024/02/29 05:09:19;;;;;;;29.58;10.98;;;;;;;3.08;100.00;101214.63;6225285;28;20129;-78
2024/02/29 05:12:22;;;;;;;26.15;9.80;;;;;;;3.10;100.00;101220.66;6226232;28;20054;-81
2024/02/29 05:15:23;;;;;;;29.48;10.20;;;;;;;3.09;100.00;101207.69;6225917;28;20045;-79
2024/02/29 05:18:26;;;;;;;33.85;11.23;;;;;;;3.11;100.00;101200.75;6225566;28;20054;-80
2024/02/29 05:21:28;;;;;;;27.80;10.18;;;;;;;3.07;100.00;101197.31;6225975;28;20046;-78
2024/02/29 05:24:30;;;;;;;25.88;9.68;;;;;;;3.04;100.00;101202.56;6225691;28;20350;-80
2024/02/29 05:27:32;;;;;;;26.38;9.80;;;;;;;3.07;100.00;101192.13;6226159;28;20057;-80
2024/02/29 05:30:33;;;;;;;30.20;10.70;;;;;;;3.11;100.00;101185.16;6225724;28;20050;-80
2024/02/29 05:33:34;;;;;;;27.17;10.30;;;;;;;3.10;100.00;101188.66;6225724;28;20053;-80
2024/02/29 05:36:36;;;;;;;25.45;9.45;;;;;;;3.11;100.00;101180.81;6225810;28;20430;-80
2024/02/29 05:39:38;;;;;;;25.73;9.93;;;;;;;3.13;100.00;101188.56;6225561;28;20474;-80
2024/02/29 05:42:40;;;;;;;28.40;10.45;;;;;;;3.11;100.00;101188.63;6225845;28;20049;-80
2024/02/29 05:45:42;;;;;;;31.05;9.38;;;;;;;3.14;100.00;101175.59;6225460;28;20050;-78
2024/02/29 05:48:43;;;;;;;27.63;11.73;;;;;;;3.11;100.00;101174.78;6225419;28;20054;-79
2024/02/29 05:51:45;;;;;;;25.70;10.65;;;;;;;3.09;100.00;101176.53;6225904;28;20074;-80
2024/02/29 05:54:48;;;;;;;31.38;10.55;;;;;;;3.05;100.00;101176.59;6225457;28;20556;-80
2024/02/29 05:57:49;;;;;;;31.42;10.77;;;;;;;3.05;100.00;101174.00;6225806;28;20050;-79
2024/02/29 06:00:50;;;;;;;28.73;10.25;;;;;;;3.05;100.00;101176.59;6225161;28;20327;-80
2024/02/29 06:03:52;;;;;;;23.23;10.35;;;;;;;3.05;100.00;101174.00;6224843;28;20057;-78
2024/02/29 06:06:53;;;;;;;29.08;9.73;;;;;;;3.08;100.00;101174.81;6225377;28;20048;-79
2024/02/29 06:09:56;;;;;;;33.63;10.93;;;;;;;3.09;100.00;101168.72;6224830;28;20073;-79
2024/02/29 06:12:57;;;;;;;34.53;10.25;;;;;;;3.10;100.00;101166.13;6224642;28;20057;-79
2024/02/29 06:16:00;;;;;;;28.85;10.40;;;;;;;3.15;100.00;101168.66;6224779;28;20354;-78
2024/02/29 06:19:02;;;;;;;28.13;10.60;;;;;;;3.18;100.00;101171.19;6224955;28;20462;-79
2024/02/29 06:22:04;;;;;;;21.88;10.15;;;;;;;3.16;100.00;101167.75;6227549;28;20060;-79
2024/02/29 06:25:08;;;;;;;25.40;10.73;;;;;;;3.19;100.00;101168.59;6229631;28;20427;-78
2024/02/29 06:28:10;;;;;;;26.02;10.38;;;;;;;3.22;100.00;101157.28;6229366;28;20053;-78
2024/02/29 06:31:12;;;;;;;33.50;11.50;;;;;;;3.24;100.00;101158.97;6230037;28;20042;-78
2024/02/29 06:34:13;;;;;;;25.15;9.55;;;;;;;3.25;100.00;101158.09;6229440;28;20052;-78
2024/02/29 06:37:14;;;;;;;23.02;9.20;;;;;;;3.26;100.00;101152.00;6229823;28;20057;-79
2024/02/29 06:40:17;;;;;;;26.38;9.57;;;;;;;3.30;100.00;101155.41;6229250;28;20049;-78
2024/02/29 06:43:18;;;;;;;23.10;9.43;;;;;;;3.30;100.00;101151.06;6229722;28;20061;-80
2024/02/29 06:46:20;;;;;;;23.45;10.02;;;;;;;3.35;100.00;101144.94;6228986;28;20045;-78
2024/02/29 06:49:22;;;;;;;30.70;10.02;;;;;;;3.36;100.00;101160.53;6229093;28;20053;-78
2024/02/29 06:52:24;;;;;;;32.60;9.82;;;;;;;3.38;100.00;101150.94;6228974;28;20454;-81
2024/02/29 06:55:27;;;;;;;29.88;10.65;;;;;;;3.47;100.00;101148.19;6227564;28;20438;-80
2024/02/29 06:58:29;;;;;;;35.20;11.30;;;;;;;3.48;100.00;101141.25;6227308;28;20049;-79
2024/02/29 07:01:32;;;;;;;31.23;12.23;;;;;;;3.53;100.00;101136.81;6226942;28;20046;-79
2024/02/29 07:04:33;;;;;;;28.45;10.35;;;;;;;3.63;100.00;101130.56;6227603;28;20042;-80
2024/02/29 07:07:35;;;;;;;25.45;11.00;;;;;;;3.66;100.00;101127.06;6227783;28;20228;-80
2024/02/29 07:10:37;;;;;;;23.00;8.80;;;;;;;3.79;100.00;101121.59;6227511;28;20052;-80
2024/02/29 07:13:39;;;;;;;21.95;9.65;;;;;;;4.01;100.00;101118.59;6227477;28;20045;-81
2024/02/29 07:16:42;;;;;;;30.23;9.63;;;;;;;4.18;100.00;101116.50;6227393;28;20124;-80
2024/02/29 07:19:44;;;;;;;34.28;10.93;;;;;;;4.31;100.00;101125.75;6227020;28;20061;-81
2024/02/29 07:22:46;;;;;;;27.48;9.50;;;;;;;4.38;100.00;101123.00;6227469;28;20072;-79
2024/02/29 07:25:49;;;;;;;22.05;8.90;;;;;;;4.47;100.00;101117.59;6227136;28;20056;-81
2024/02/29 07:28:50;;;;;;;21.10;8.93;;;;;;;4.54;100.00;101116.56;6226609;28;20046;-81
2024/02/29 07:31:52;;;;;;;19.63;9.07;;;;;;;4.64;100.00;101110.28;6227295;28;20100;-79
2024/02/29 07:34:53;;;;;;;21.40;9.57;;;;;;;4.76;100.00;101111.72;6225953;28;20046;-81
2024/02/29 07:37:55;;;;;;;22.73;9.15;;;;;;;4.84;100.00;101107.19;6219499;28;20054;-78
2024/02/29 07:40:57;;;;;;;24.60;9.95;;;;;;;4.94;100.00;101113.03;6223904;28;20046;-76
2024/02/29 07:43:59;;;;;;;27.85;8.70;;;;;;;4.98;100.00;101118.13;6219017;28;20049;-78
2024/02/29 07:47:00;;;;;;;22.75;9.40;;;;;;;5.09;100.00;101117.88;6221915;28;20053;-79
2024/02/29 07:50:03;;;;;;;26.08;8.82;;;;;;;5.16;100.00;101114.22;6220491;28;20057;-79
2024/02/29 07:53:05;;;;;;;20.52;8.18;;;;;;;5.26;100.00;101104.41;6190613;28;1049823;-78
2024/02/29 07:56:07;;;;;;;22.63;8.40;;;;;;;5.35;100.00;101110.25;6227888;28;20128;-79
2024/02/29 07:59:09;;;;;;;16.98;7.88;;;;;;;5.42;100.00;101103.13;6227087;28;20399;-79
2024/02/29 08:02:11;;;;;;;23.10;9.95;;;;;;;5.46;100.00;101106.53;6228508;28;20046;-81
2024/02/29 08:05:13;;;;;;;27.90;8.40;;;;;;;5.56;100.00;101098.41;6227306;28;20053;-79
2024/02/29 08:08:15;;;;;;;20.20;8.27;;;;;;;5.60;100.00;101097.44;6226844;28;20200;-79
2024/02/29 08:11:17;;;;;;;18.70;8.65;;;;;;;5.67;100.00;101095.50;6219379;28;20058;-79
2024/02/29 08:14:19;;;;;;;20.40;8.60;;;;;;;5.76;100.00;101089.19;6227142;28;20057;-78
2024/02/29 08:17:20;;;;;;;15.18;7.85;;;;;;;5.84;100.00;101084.59;6227461;28;20045;-79
2024/02/29 08:20:25;;;;;;;19.30;7.72;;;;;;;5.94;100.00;101085.22;6225828;28;20045;-78
2024/02/29 08:23:26;;;;;;;22.13;8.25;;;;;;;6.16;100.00;101094.13;6226503;28;20081;-78
2024/02/29 08:26:29;;;;;;;20.08;8.57;;;;;;;6.23;100.00;101081.78;6226679;28;20046;-78
2024/02/29 08:29:30;;;;;;;21.00;9.30;;;;;;;6.32;100.00;101076.28;6226925;28;20049;-80
2024/02/29 08:32:32;;;;;;;19.85;7.85;;;;;;;6.41;100.00;101080.38;6233570;28;20050;-79
2024/02/29 08:35:33;;;;;;;22.55;8.30;;;;;;;6.50;100.00;101077.47;6237067;28;20049;-80
2024/02/29 08:38:37;;;;;;;17.90;8.13;;;;;;;6.54;100.00;101077.34;6233570;28;20057;-79
2024/02/29 08:41:40;;;;;;;17.00;8.23;;;;;;;6.58;100.00;101080.69;6227328;28;20129;-79
2024/02/29 08:44:42;;;;;;;18.10;8.52;;;;;;;6.61;100.00;101073.59;6227498;28;20056;-82
2024/02/29 08:47:44;;;;;;;20.33;8.40;;;;;;;6.74;100.00;101078.44;6227034;28;20407;-82
2024/02/29 08:50:45;;;;;;;22.05;8.63;;;;;;;6.76;100.00;101081.84;6226620;28;20078;-78
2024/02/29 08:53:46;;;;;;;22.50;7.80;;;;;;;6.88;100.00;101064.94;6226383;28;20050;-78
2024/02/29 08:56:49;;;;;;;18.75;8.32;;;;;;;6.97;100.00;101070.72;6226178;28;20053;-78
2024/02/29 08:59:51;;;;;;;22.88;7.95;;;;;;;7.14;100.00;101070.16;6221346;28;20050;-78
2024/02/29 09:02:52;;;;;;;19.63;8.43;;;;;;;7.22;100.00;101068.16;6213856;28;20132;-77
2024/02/29 09:05:54;;;;;;;20.33;8.05;;;;;;;7.40;100.00;101065.78;6216693;28;20068;-77
2024/02/29 09:08:55;;;;;;;16.80;8.23;;;;;;;7.41;100.00;101057.03;6225990;28;20054;-76
2024/02/29 09:11:58;;;;;;;22.70;8.30;;;;;;;7.54;100.00;101056.56;6225773;28;20155;-77
2024/02/29 09:15:01;;;;;;;19.30;7.20;;;;;;;7.65;100.00;101044.84;6225933;28;20053;-77
2024/02/29 09:18:03;;;;;;;16.60;7.80;;;;;;;7.78;100.00;101046.09;6225684;28;20056;-78
2024/02/29 09:21:05;;;;;;;15.98;7.32;;;;;;;7.85;100.00;101040.56;6226027;28;20053;-78
2024/02/29 09:24:06;;;;;;;18.00;7.20;;;;;;;7.99;100.00;101034.81;6225801;28;20060;-79
2024/02/29 09:27:10;;;;;;;16.48;7.38;;;;;;;8.13;98.71;101035.16;6225838;28;20427;-78
2024/02/29 09:30:12;;;;;;;17.67;7.55;;;;;;;8.19;97.96;101039.31;6225611;28;20050;-79
2024/02/29 09:33:14;;;;;;;17.45;7.75;;;;;;;8.30;98.79;101031.03;6226046;28;20528;-78
2024/02/29 09:36:15;;;;;;;19.65;7.70;;;;;;;8.35;97.14;101029.91;6225024;28;20338;-76
2024/02/29 09:39:17;;;;;;;19.85;7.65;;;;;;;8.50;98.49;101031.13;6224872;28;20057;-77
2024/02/29 09:42:19;;;;;;;16.85;7.47;;;;;;;8.54;96.12;101029.22;6226026;28;20045;-77
2024/02/29 09:45:23;;;;;;;19.17;7.72;;;;;;;8.49;95.79;101029.41;6225573;28;20434;-78
2024/02/29 09:48:25;;;;;;;18.02;6.53;;;;;;;8.59;97.78;101030.75;6225085;28;20133;-76
2024/02/29 09:51:30;;;;;;;17.88;6.90;;;;;;;8.70;98.24;101013.75;6225736;28;20108;-78
2024/02/29 09:54:34;;;;;;;18.08;8.27;;;;;;;8.74;99.10;101013.56;6225166;28;20368;-78
2024/02/29 09:57:37;;;;;;;15.23;6.22;;;;;;;8.86;96.92;101007.81;6228847;28;20048;-78
2024/02/29 10:00:38;;;;;;;15.50;6.90;;;;;;;8.91;93.84;101006.75;6229781;28;20457;-78
2024/02/29 10:03:43;;;;;;;16.30;7.82;;;;;;;8.92;97.41;100998.81;6230197;28;20061;-78
2024/02/29 10:06:44;;;;;;;14.25;6.68;;;;;;;8.97;95.23;100998.63;6229527;28;20049;-78
2024/02/29 10:09:45;;;;;;;11.57;5.78;;;;;;;9.10;94.54;100991.94;6229936;28;20057;-78
2024/02/29 10:12:55;;;;;;;13.68;5.85;;;;;;;9.19;96.35;100994.16;6229890;28;20060;-79
2024/02/29 10:15:58;;;;;;;14.27;6.07;;;;;;;9.31;94.27;100993.63;6230253;28;20057;-78
2024/02/29 10:19:00;;;;;;;17.17;6.93;;;;;;;9.40;92.57;100993.22;6229349;28;20046;-78
2024/02/29 10:22:02;;;;;;;15.48;7.10;;;;;;;9.48;91.49;100987.63;6230024;28;20524;-78
2024/02/29 10:25:10;;;;;;;12.60;5.45;;;;;;;9.61;83.33;100986.16;6229369;28;20042;-77
2024/02/29 10:28:15;;;;;;;13.18;5.63;;;;;;;9.66;84.62;100980.69;6229419;28;20052;-77
2024/02/29 10:31:16;;;;;;;13.57;5.78;;;;;;;9.79;84.73;100980.97;6229570;28;20073;-77
2024/02/29 10:34:20;;;;;;;14.07;5.18;;;;;;;9.75;82.59;100977.66;6229524;28;20446;-77
2024/02/29 10:37:22;;;;;;;14.45;5.40;;;;;;;9.72;82.86;100971.69;6229592;28;20088;-78
2024/02/29 10:40:24;;;;;;;11.25;4.88;;;;;;;9.82;79.93;100965.94;6229093;28;20354;-77
2024/02/29 10:43:31;;;;;;;11.18;5.05;;;;;;;9.93;80.90;100967.22;6229462;28;20362;-78
2024/02/29 10:46:33;;;;;;;12.05;5.65;;;;;;;10.06;78.54;100965.72;6228891;28;20056;-78
2024/02/29 10:49:41;;;;;;;10.98;4.93;;;;;;;10.09;76.62;100960.31;6228916;28;20045;-79
2024/02/29 10:52:49;;;;;;;11.35;4.97;;;;;;;10.14;77.30;100958.31;6229067;28;20053;-79
2024/02/29 10:55:57;;;;;;;9.50;4.72;;;;;;;10.27;79.38;100953.38;6228939;28;20074;-77
2024/02/29 10:59:04;;;;;;;15.40;5.57;;;;;;;10.30;79.69;100954.03;6228528;28;20426;-77
2024/02/29 11:02:06;;;;;;;12.45;5.22;;;;;;;10.44;80.86;100947.25;6229244;28;20189;-78
2024/02/29 11:05:08;;;;;;;10.27;5.03;;;;;;;10.65;78.33;100949.69;6228423;28;20073;-78
2024/02/29 11:08:10;;;;;;;14.50;6.00;;;;;;;10.72;77.75;100937.09;6227238;28;20072;-78
2024/02/29 11:11:14;;;;;;;12.40;5.15;;;;;;;10.77;77.28;100931.59;6228637;28;20046;-78
2024/02/29 11:14:18;;;;;;;11.18;4.90;;;;;;;10.77;77.59;100921.94;6228497;28;20061;-78
2024/02/29 11:17:19;;;;;;;9.85;5.25;;;;;;;10.86;79.22;100924.09;6228537;28;20457;-78
2024/02/29 11:20:22;;;;;;;18.40;5.22;;;;;;;11.00;75.65;100925.16;6228352;28;20105;-78
2024/02/29 11:23:29;;;;;;;14.23;5.95;;;;;;;10.99;73.62;100918.16;6226465;28;20046;-78
2024/02/29 11:26:32;;;;;;;11.15;5.47;;;;;;;11.15;78.54;100914.66;6227616;28;20044;-78
2024/02/29 11:29:35;;;;;;;12.57;6.05;;;;;;;11.24;78.41;100905.44;6227576;28;20042;-79
2024/02/29 11:32:37;;;;;;;12.32;5.18;;;;;;;11.34;76.11;100909.25;6228138;28;20046;-78
2024/02/29 11:35:38;;;;;;;10.57;4.57;;;;;;;11.45;74.34;100911.34;6228054;28;20050;-78
2024/02/29 11:38:40;;;;;;;11.32;4.97;;;;;;;11.58;76.62;100911.47;6227237;28;20045;-76
2024/02/29 11:41:41;;;;;;;12.10;5.03;;;;;;;11.68;73.98;100900.38;6228079;28;20060;-78
2024/02/29 11:44:47;;;;;;;11.15;4.88;;;;;;;11.86;73.26;100901.19;6227501;28;20041;-78
2024/02/29 11:47:49;;;;;;;13.82;6.22;;;;;;;12.02;75.46;100895.88;6227702;28;20056;-78
2024/02/29 11:50:51;;;;;;;9.27;4.50;;;;;;;12.07;70.66;100883.28;6226953;28;20200;-79
2024/02/29 11:53:54;;;;;;;10.13;4.50;;;;;;;12.17;71.54;100879.22;6219217;28;20442;-78
2024/02/29 11:56:56;;;;;;;10.23;4.85;;;;;;;12.25;69.95;100862.09;6227745;28;20092;-78
2024/02/29 11:59:59;;;;;;;13.60;5.55;;;;;;;12.42;71.13;100864.59;6227516;28;20095;-80
2024/02/29 12:03:00;;;;;;;8.40;4.70;;;;;;;12.61;68.32;100848.53;6224479;28;20057;-80
2024/02/29 12:06:01;;;;;;;11.45;5.05;;;;;;;12.66;65.97;100846.44;6227312;28;20046;-81
2024/02/29 12:09:05;;;;;;;12.98;4.75;;;;;;;12.82;67.93;100854.28;6226996;28;20049;-81
2024/02/29 12:12:10;;;;;;;10.35;4.95;;;;;;;13.03;64.89;100839.75;6227593;28;20137;-80
2024/02/29 12:15:13;;;;;;;13.23;6.07;;;;;;;13.16;66.99;100839.84;6227174;28;20394;-81
2024/02/29 12:18:15;;;;;;;11.25;6.03;;;;;;;13.35;67.91;100836.94;6227379;28;20351;-82
2024/02/29 12:21:17;;;;;;;10.23;4.82;;;;;;;13.53;66.49;100843.66;6227699;28;20057;-77
2024/02/29 12:24:18;;;;;;;10.18;5.03;;;;;;;13.43;64.31;100835.50;6227924;28;20046;-83
2024/02/29 12:27:20;;;;;;;11.07;5.38;;;;;;;13.61;67.12;100830.84;6228626;28;20052;-81
2024/02/29 12:30:23;;;;;;;13.35;5.78;;;;;;;13.56;62.32;100821.53;6234390;28;20084;-78
2024/02/29 12:33:24;;;;;;;11.30;5.13;;;;;;;13.65;64.80;100819.13;6231332;28;20041;-79
2024/02/29 12:36:28;;;;;;;19.60;6.82;;;;;;;13.84;66.19;100812.63;6226934;28;20042;-78
2024/02/29 12:39:30;;;;;;;11.18;5.53;;;;;;;14.14;64.11;100812.41;6226634;28;20438;-78
2024/02/29 12:42:33;;;;;;;13.07;6.05;;;;;;;14.13;62.81;100808.91;6226402;28;20046;-77
2024/02/29 12:45:35;;;;;;;12.55;5.18;;;;;;;14.08;59.62;100810.16;6226431;28;20045;-79
2024/02/29 12:48:37;;;;;;;10.27;4.85;;;;;;;14.06;62.78;100804.13;6226023;28;20045;-77
2024/02/29 12:51:39;;;;;;;9.40;4.90;;;;;;;14.20;63.29;100799.59;6226382;28;20327;-78
2024/02/29 12:54:41;;;;;;;12.55;5.15;;;;;;;14.16;61.89;100798.13;6223685;28;20339;-78
2024/02/29 12:57:42;;;;;;;9.25;4.35;;;;;;;14.25;63.21;100794.00;6226120;28;20042;-78
2024/02/29 13:00:45;;;;;;;9.45;4.28;;;;;;;14.23;59.91;100789.78;6226170;28;20046;-80
2024/02/29 13:03:47;;;;;;;9.65;4.30;;;;;;;14.38;61.01;100789.59;6226319;28;20045;-83
2024/02/29 13:06:48;;;;;;;10.07;5.05;;;;;;;14.56;61.81;100784.00;6226046;28;20132;-79
2024/02/29 13:09:51;;;;;;;9.35;5.13;;;;;;;14.63;59.06;100778.19;6226110;28;20061;-76
2024/02/29 13:12:52;;;;;;;11.05;4.97;;;;;;;14.65;60.55;100773.63;6226556;28;20442;-79
2024/02/29 13:15:55;;;;;;;8.88;4.65;;;;;;;14.64;60.10;100771.94;6225916;28;20362;-79
2024/02/29 13:18:56;;;;;;;10.05;4.60;;;;;;;14.56;60.72;100773.44;6225535;28;20045;-78
2024/02/29 13:21:58;;;;;;;10.32;4.35;;;;;;;14.76;58.88;100761.44;6225246;28;20344;-79
2024/02/29 13:24:59;;;;;;;12.27;5.85;;;;;;;14.76;60.05;100761.44;6225860;28;20177;-79
2024/02/29 13:28:01;;;;;;;11.13;5.60;;;;;;;14.90;60.69;100750.75;6225801;28;20053;-79
2024/02/29 13:31:05;;;;;;;10.80;4.47;;;;;;;15.16;61.32;100746.22;6226199;28;20054;-80
2024/02/29 13:34:06;;;;;;;11.90;4.88;;;;;;;15.25;57.32;100737.59;6231019;28;20045;-79
2024/02/29 13:37:07;;;;;;;10.05;4.05;;;;;;;15.39;57.54;100739.25;6230908;28;20056;-78
2024/02/29 13:40:09;;;;;;;11.13;4.88;;;;;;;15.43;56.95;100732.75;6230405;28;20350;-76
2024/02/29 13:43:11;;;;;;;9.15;4.65;;;;;;;15.36;56.64;100734.19;6230656;28;20046;-78
2024/02/29 13:46:16;;;;;;;9.60;4.75;;;;;;;15.18;55.82;100731.94;6230535;28;20135;-77
2024/02/29 13:49:17;;;;;;;8.10;4.28;;;;;;;14.86;56.49;100728.97;6229223;28;20079;-79
2024/02/29 13:52:19;;;;;;;9.82;4.03;;;;;;;14.83;56.38;100718.59;6230482;28;20046;-79
2024/02/29 13:55:20;;;;;;;7.70;4.25;;;;;;;14.98;55.17;100714.81;6230042;28;20369;-78